Time;durP1;ratioP1;P1;durP2;ratioP2;P2;SDS_P1;SDS_P2;PMS_P1;PMS_P2;Temp;Humidity;BMP_temperature;BMP_pressure;BME280_temperature;BME280_humidity;BME280_pressure;Samples;Min_cycle;Max_cycle;Signal;HPM_P1;HPM_P2
2022/09/17 00:02:24;;;;;;;16.25;12.98;;;;;;;10.62;85.65;98552.83;1780303;80;21261;-77
2022/09/17 00:04:50;;;;;;;18.85;13.70;;;;;;;10.62;85.36;98547.57;1780539;80;22028;-76
2022/09/17 00:07:17;;;;;;;14.15;10.53;;;;;;;10.63;85.37;98544.03;1780277;80;21570;-75
2022/09/17 00:09:44;;;;;;;21.25;11.75;;;;;;;10.65;85.29;98534.74;1780463;80;21137;-77
2022/09/17 00:12:11;;;;;;;13.15;8.75;;;;;;;10.63;85.34;98522.98;1780424;80;21117;-78
2022/09/17 00:14:39;;;;;;;18.52;10.45;;;;;;;10.63;85.31;98524.30;1780365;80;21079;-77
2022/09/17 00:17:07;;;;;;;10.05;6.80;;;;;;;10.65;85.58;98524.22;1752705;80;21114;-77
2022/09/17 00:19:33;;;;;;;10.85;7.05;;;;;;;10.67;86.05;98519.73;1780474;80;21023;-77
2022/09/17 00:22:00;;;;;;;9.45;6.87;;;;;;;10.68;86.24;98513.08;1780117;80;21003;-77
2022/09/17 00:24:26;;;;;;;40.30;18.67;;;;;;;10.69;86.22;98503.39;1780379;80;21487;-76
2022/09/17 00:26:53;;;;;;;41.02;18.50;;;;;;;10.70;86.21;98503.31;1780251;80;21550;-77
2022/09/17 00:29:20;;;;;;;32.20;17.40;;;;;;;10.71;86.46;98501.56;1780279;80;22275;-78
2022/09/17 00:31:47;;;;;;;14.40;8.18;;;;;;;10.74;86.71;98512.77;1780251;80;21616;-78
2022/09/17 00:34:13;;;;;;;9.85;6.35;;;;;;;10.75;87.27;98518.40;1779985;80;21455;-77
2022/09/17 00:36:40;;;;;;;10.25;6.97;;;;;;;10.72;87.73;98526.44;1780387;80;21145;-77
2022/09/17 00:39:09;;;;;;;7.37;6.00;;;;;;;10.69;88.13;98524.00;1780289;80;21108;-77
2022/09/17 00:41:36;;;;;;;6.47;5.70;;;;;;;10.68;88.37;98520.97;1780232;80;21126;-77
2022/09/17 00:44:43;;;;;;;13.18;9.05;;;;;;;10.69;88.47;98514.79;1780420;80;21069;-77
2022/09/17 00:47:18;;;;;;;12.28;7.97;;;;;;;10.70;88.62;98513.84;1780367;80;21071;-77
2022/09/17 00:49:45;;;;;;;7.65;5.25;;;;;;;10.71;88.80;98523.92;1780623;80;21020;-77
2022/09/17 00:52:23;;;;;;;6.55;4.65;;;;;;;10.70;89.10;98534.89;1777616;80;21203;-77
2022/09/17 00:55:01;;;;;;;5.70;4.22;;;;;;;10.70;89.28;98534.89;1780345;80;23270;-78
2022/09/17 00:57:28;;;;;;;12.85;7.25;;;;;;;10.69;89.38;98528.39;1778226;80;20992;-77
2022/09/17 00:59:55;;;;;;;9.23;6.15;;;;;;;10.68;89.31;98515.70;1780345;80;21533;-77
2022/09/17 01:02:22;;;;;;;14.63;10.18;;;;;;;10.70;89.03;98523.52;1780292;80;21479;-76
2022/09/17 01:04:48;;;;;;;5.53;4.58;;;;;;;10.72;88.88;98522.97;1780241;80;22326;-76
2022/09/17 01:07:38;;;;;;;4.87;4.40;;;;;;;10.74;89.11;98530.31;1780180;80;21640;-77
2022/09/17 01:10:29;;;;;;;6.55;4.50;;;;;;;10.73;89.21;98535.21;1780293;80;21011;-77
2022/09/17 01:13:30;;;;;;;6.08;4.42;;;;;;;10.69;89.39;98537.15;1758339;80;21008;-75
2022/09/17 01:16:21;;;;;;;7.08;4.20;;;;;;;10.69;89.42;98534.52;1780279;80;21058;-76
2022/09/17 01:19:29;;;;;;;6.55;5.17;;;;;;;10.73;89.27;98532.10;1780315;80;21108;-77
2022/09/17 01:22:19;;;;;;;7.40;5.30;;;;;;;10.76;89.26;98535.90;1779837;80;21580;-78
2022/09/17 01:25:11;;;;;;;8.90;5.95;;;;;;;10.80;89.19;98543.17;1780330;80;21052;-77
2022/09/17 01:27:48;;;;;;;14.03;8.33;;;;;;;10.81;89.13;98542.69;1779941;80;21036;-77
2022/09/17 01:30:23;;;;;;;14.68;7.90;;;;;;;10.85;89.27;98548.20;1779423;80;21513;-76
2022/09/17 01:33:09;;;;;;;11.70;7.62;;;;;;;10.86;89.36;98551.20;1753210;80;21179;-77
2022/09/17 01:35:51;;;;;;;13.28;7.33;;;;;;;10.84;89.61;98549.12;1780076;80;21443;-77
2022/09/17 01:38:47;;;;;;;11.63;7.25;;;;;;;10.82;89.65;98545.72;1780447;80;21329;-77
2022/09/17 01:41:43;;;;;;;12.20;7.20;;;;;;;10.81;89.66;98538.75;1780458;80;21032;-77
2022/09/17 01:44:32;;;;;;;18.73;8.53;;;;;;;10.81;89.70;98547.52;1780323;80;21062;-76
2022/09/17 01:47:12;;;;;;;12.82;7.95;;;;;;;10.82;89.93;98556.25;1780499;80;21156;-77
2022/09/17 01:49:39;;;;;;;18.15;8.18;;;;;;;10.83;90.09;98557.96;1780077;80;21105;-77
2022/09/17 01:52:10;;;;;;;15.65;9.48;;;;;;;10.86;90.04;98566.98;1780576;80;21059;-77
2022/09/17 01:54:41;;;;;;;19.37;10.40;;;;;;;10.88;90.16;98562.05;1777589;80;21095;-77
2022/09/17 01:57:18;;;;;;;14.98;8.68;;;;;;;10.89;90.38;98557.62;1752903;80;21036;-77
2022/09/17 01:59:56;;;;;;;14.75;7.65;;;;;;;10.92;90.44;98562.73;1779889;80;21276;-77
2022/09/17 02:02:27;;;;;;;15.25;9.58;;;;;;;10.92;90.47;98553.05;1780217;80;21078;-77
2022/09/17 02:05:08;;;;;;;20.65;10.25;;;;;;;10.94;90.63;98549.91;1780046;80;21051;-77
2022/09/17 02:07:40;;;;;;;24.95;12.18;;;;;;;10.96;90.66;98549.80;1748922;80;21055;-77
2022/09/17 02:10:10;;;;;;;26.48;11.85;;;;;;;10.99;90.60;98541.75;1779173;80;21048;-77
2022/09/17 02:12:42;;;;;;;23.92;11.43;;;;;;;11.02;90.63;98544.70;1780066;80;21773;-77
2022/09/17 02:15:14;;;;;;;18.25;9.33;;;;;;;11.04;90.62;98539.72;1780529;80;21063;-77
2022/09/17 02:17:55;;;;;;;16.77;8.95;;;;;;;11.05;90.61;98534.86;1779126;80;20944;-77
2022/09/17 02:20:25;;;;;;;13.40;6.87;;;;;;;11.07;90.49;98547.46;1780121;80;21467;-76
2022/09/17 02:22:58;;;;;;;7.05;5.90;;;;;;;11.09;90.66;98553.49;1780500;80;21612;-77
2022/09/17 02:25:47;;;;;;;19.80;6.50;;;;;;;11.10;90.83;98557.84;1780195;80;21230;-77
2022/09/17 02:28:42;;;;;;;19.82;9.48;;;;;;;11.11;90.64;98558.23;1780155;80;21210;-76
2022/09/17 02:31:10;;;;;;;14.07;8.13;;;;;;;11.12;90.59;98552.02;1780314;80;21066;-77
2022/09/17 02:33:37;;;;;;;11.15;7.60;;;;;;;11.13;90.68;98560.31;1780450;80;21087;-76
2022/09/17 02:36:04;;;;;;;15.68;8.83;;;;;;;11.13;90.80;98564.27;1780353;80;21115;-77
2022/09/17 02:38:31;;;;;;;10.78;7.55;;;;;;;11.17;90.66;98562.80;1780190;80;21780;-77
2022/09/17 02:41:15;;;;;;;12.55;7.50;;;;;;;11.18;90.57;98553.95;1780148;80;21090;-77
2022/09/17 02:43:57;;;;;;;18.48;8.18;;;;;;;11.18;90.49;98555.27;1779051;80;21114;-77
2022/09/17 02:47:01;;;;;;;13.08;7.28;;;;;;;11.20;90.35;98549.00;1780388;80;21562;-77
2022/09/17 02:50:06;;;;;;;8.68;5.90;;;;;;;11.23;89.96;98538.75;1780231;80;20999;-77
2022/09/17 02:53:03;;;;;;;7.50;5.03;;;;;;;11.26;90.07;98539.91;1780400;80;21207;-77
2022/09/17 02:56:01;;;;;;;10.38;4.92;;;;;;;11.28;89.86;98535.41;1780044;80;21470;-77
2022/09/17 02:58:39;;;;;;;7.90;4.42;;;;;;;11.28;89.83;98521.80;1780478;80;21003;-77
2022/09/17 03:01:11;;;;;;;4.00;3.70;;;;;;;11.31;89.84;98515.50;1780433;80;21079;-77
2022/09/17 03:03:40;;;;;;;5.08;4.58;;;;;;;11.34;89.86;98508.76;1780101;80;21494;-77
2022/09/17 03:06:07;;;;;;;5.55;4.55;;;;;;;11.34;89.97;98521.92;1780584;80;21124;-78
2022/09/17 03:08:39;;;;;;;4.95;4.47;;;;;;;11.32;90.09;98527.27;1780169;80;21004;-77
2022/09/17 03:11:08;;;;;;;7.72;5.62;;;;;;;11.33;90.27;98528.11;1780541;80;21090;-78
2022/09/17 03:13:35;;;;;;;5.92;4.10;;;;;;;11.32;90.45;98539.13;1780015;80;21471;-77
2022/09/17 03:16:03;;;;;;;8.15;4.92;;;;;;;11.31;90.73;98539.20;1780663;80;20964;-77
2022/09/17 03:18:30;;;;;;;5.87;4.53;;;;;;;11.26;91.04;98536.84;1779831;80;21608;-77
2022/09/17 03:20:56;;;;;;;5.42;4.67;;;;;;;11.24;91.39;98549.20;1777688;80;21012;-77
2022/09/17 03:23:23;;;;;;;9.78;5.67;;;;;;;11.23;91.66;98549.28;1774732;80;21138;-77
2022/09/17 03:25:51;;;;;;;7.35;4.80;;;;;;;11.21;91.85;98545.89;1774282;80;21067;-77
2022/09/17 03:28:17;;;;;;;6.03;4.83;;;;;;;11.20;92.01;98540.26;1775044;80;21091;-76
2022/09/17 03:30:44;;;;;;;7.58;4.78;;;;;;;11.21;92.11;98543.26;1774745;80;21235;-77
2022/09/17 03:33:10;;;;;;;7.10;4.78;;;;;;;11.24;92.03;98539.16;1774631;80;20968;-77
2022/09/17 03:35:37;;;;;;;8.28;4.47;;;;;;;11.25;92.01;98539.08;1774896;80;21071;-76
2022/09/17 03:38:03;;;;;;;4.95;4.42;;;;;;;11.30;91.99;98544.11;1774545;80;21036;-76
2022/09/17 03:40:30;;;;;;;10.55;5.17;;;;;;;11.34;91.82;98541.67;1774885;80;20991;-76
2022/09/17 03:42:56;;;;;;;7.28;4.92;;;;;;;11.37;91.76;98552.05;1774711;80;21224;-77
2022/09/17 03:45:23;;;;;;;10.85;5.10;;;;;;;11.39;91.77;98555.92;1774520;80;21055;-78
2022/09/17 03:47:49;;;;;;;7.62;5.08;;;;;;;11.36;91.88;98549.02;1775001;80;21047;-76
2022/09/17 03:50:15;;;;;;;9.53;5.72;;;;;;;11.37;91.93;98556.48;1774674;80;21087;-76
2022/09/17 03:52:43;;;;;;;8.83;4.95;;;;;;;11.37;92.05;98557.32;1774767;80;21024;-77
2022/09/17 03:55:10;;;;;;;4.87;4.35;;;;;;;11.38;92.09;98560.35;1774561;80;21226;-77
2022/09/17 03:57:38;;;;;;;7.50;4.70;;;;;;;11.36;92.08;98554.29;1774590;80;22032;-77
2022/09/17 04:00:06;;;;;;;5.78;5.15;;;;;;;11.36;92.09;98550.34;1774660;80;21606;-77
2022/09/17 04:02:35;;;;;;;6.33;4.80;;;;;;;11.37;91.98;98550.73;1774443;80;21099;-77
2022/09/17 04:05:01;;;;;;;7.90;4.20;;;;;;;11.42;92.03;98548.70;1774733;80;22047;-77
2022/09/17 04:07:28;;;;;;;11.95;5.03;;;;;;;11.48;92.23;98558.92;1774437;80;22004;-78
2022/09/17 04:09:54;;;;;;;12.93;5.08;;;;;;;11.51;91.98;98559.20;1774645;80;21578;-78
2022/09/17 04:12:21;;;;;;;10.72;5.60;;;;;;;11.51;91.79;98565.32;1774803;80;21464;-76
2022/09/17 04:14:48;;;;;;;6.40;4.55;;;;;;;11.52;91.81;98568.34;1774963;80;21620;-77
2022/09/17 04:17:17;;;;;;;6.55;4.53;;;;;;;11.52;91.90;98564.88;1774828;80;21012;-77
2022/09/17 04:19:44;;;;;;;5.70;4.90;;;;;;;11.53;91.98;98567.87;1774574;80;21241;-77
2022/09/17 04:22:10;;;;;;;6.05;4.45;;;;;;;11.56;92.08;98576.09;1774542;80;21146;-77
2022/09/17 04:24:36;;;;;;;7.80;4.92;;;;;;;11.60;92.17;98578.94;1774647;80;20999;-77
2022/09/17 04:27:03;;;;;;;7.17;4.80;;;;;;;11.64;92.25;98581.80;1774412;80;20997;-77
2022/09/17 04:29:30;;;;;;;5.10;4.60;;;;;;;11.68;92.09;98582.00;1774633;80;21067;-77
2022/09/17 04:31:56;;;;;;;8.95;5.10;;;;;;;11.71;92.05;98578.73;1774533;80;22067;-77
2022/09/17 04:34:23;;;;;;;12.37;7.42;;;;;;;11.73;92.10;98589.20;1774445;80;21077;-77
2022/09/17 04:36:49;;;;;;;22.80;10.25;;;;;;;11.73;92.07;98601.05;1774323;80;22311;-77
2022/09/17 04:39:16;;;;;;;24.80;12.03;;;;;;;11.76;91.95;98600.05;1774876;80;21471;-75
2022/09/17 04:41:42;;;;;;;23.45;12.47;;;;;;;11.77;91.85;98598.66;1774528;80;21684;-77
2022/09/17 04:44:08;;;;;;;25.10;11.75;;;;;;;11.78;91.68;98591.59;1774630;80;21888;-77
2022/09/17 04:46:35;;;;;;;19.85;10.48;;;;;;;11.79;91.57;98584.08;1774486;80;21082;-76
2022/09/17 04:49:02;;;;;;;20.23;10.13;;;;;;;11.79;91.43;98580.97;1774393;80;21138;-77
2022/09/17 04:51:29;;;;;;;17.07;10.05;;;;;;;11.84;91.45;98570.18;1774458;80;21039;-77
2022/09/17 04:53:55;;;;;;;9.05;6.78;;;;;;;11.87;91.34;98563.42;1774514;80;21047;-77
2022/09/17 04:56:23;;;;;;;9.78;6.47;;;;;;;11.90;91.20;98567.19;1774452;80;21635;-77
2022/09/17 04:58:49;;;;;;;12.90;8.03;;;;;;;11.94;91.19;98557.38;1774421;80;20996;-77
2022/09/17 05:01:17;;;;;;;19.48;8.90;;;;;;;11.97;91.14;98562.02;1774314;80;21319;-78
2022/09/17 05:03:44;;;;;;;11.03;6.70;;;;;;;12.01;90.98;98556.09;1774566;80;21016;-78
2022/09/17 05:06:11;;;;;;;13.13;7.05;;;;;;;12.02;91.19;98570.95;1774477;80;21074;-77
2022/09/17 05:08:39;;;;;;;9.53;6.60;;;;;;;12.00;91.84;98578.11;1774573;80;21141;-76
2022/09/17 05:11:05;;;;;;;10.10;6.95;;;;;;;11.99;92.33;98582.55;1774144;80;22025;-77
2022/09/17 05:13:32;;;;;;;13.32;7.15;;;;;;;12.00;92.43;98584.25;1774327;80;21538;-77
2022/09/17 05:15:58;;;;;;;8.48;5.87;;;;;;;12.02;92.58;98584.14;1774355;80;21047;-77
2022/09/17 05:18:25;;;;;;;10.35;6.25;;;;;;;12.04;92.66;98579.66;1774673;80;21102;-77
2022/09/17 05:20:52;;;;;;;6.55;5.65;;;;;;;12.05;92.69;98585.30;1775355;80;21110;-77
2022/09/17 05:23:19;;;;;;;13.08;5.58;;;;;;;12.09;92.90;98582.89;1780249;80;20995;-77
2022/09/17 05:25:45;;;;;;;12.20;6.55;;;;;;;12.12;92.64;98580.08;1780196;80;21118;-77
2022/09/17 05:28:11;;;;;;;13.18;6.78;;;;;;;12.12;92.52;98582.72;1780085;80;21075;-78
2022/09/17 05:30:39;;;;;;;12.47;7.22;;;;;;;12.13;92.83;98580.45;1780291;80;21482;-77
2022/09/17 05:33:06;;;;;;;9.10;5.87;;;;;;;12.12;92.84;98585.36;1780145;80;21864;-76
2022/09/17 05:35:34;;;;;;;11.22;6.55;;;;;;;12.13;92.96;98584.40;1780346;80;21518;-78
2022/09/17 05:38:02;;;;;;;11.88;5.50;;;;;;;12.14;93.01;98583.92;1780112;80;21063;-77
2022/09/17 05:40:30;;;;;;;13.60;6.28;;;;;;;12.16;93.03;98572.84;1780526;80;21596;-78
2022/09/17 05:43:00;;;;;;;7.50;5.42;;;;;;;12.20;92.84;98575.20;1780071;80;21519;-77
2022/09/17 05:45:27;;;;;;;16.25;8.65;;;;;;;12.24;92.89;98572.79;1779940;79;21329;-78
2022/09/17 05:47:55;;;;;;;17.87;8.53;;;;;;;12.29;92.70;98567.71;1780362;80;21118;-78
2022/09/17 05:50:22;;;;;;;15.28;7.40;;;;;;;12.33;92.55;98571.89;1780280;80;21016;-77
2022/09/17 05:52:50;;;;;;;17.30;8.43;;;;;;;12.38;92.40;98569.84;1780269;80;21487;-78
2022/09/17 05:55:17;;;;;;;25.02;10.58;;;;;;;12.42;91.91;98578.81;1780062;80;20979;-77
2022/09/17 05:57:44;;;;;;;20.75;10.23;;;;;;;12.46;91.66;98576.84;1779854;80;21229;-78
2022/09/17 06:00:12;;;;;;;23.55;9.58;;;;;;;12.50;91.42;98578.36;1780529;80;21665;-77
2022/09/17 06:02:39;;;;;;;33.15;11.68;;;;;;;12.54;91.24;98593.09;1780467;80;21448;-77
2022/09/17 06:05:06;;;;;;;24.07;9.88;;;;;;;12.58;90.96;98592.44;1780649;80;21201;-78
2022/09/17 06:07:36;;;;;;;23.38;8.65;;;;;;;12.60;90.68;98586.12;1780358;80;20984;-77
2022/09/17 06:10:04;;;;;;;12.98;6.28;;;;;;;12.63;90.37;98592.55;1779708;80;21106;-78
2022/09/17 06:12:31;;;;;;;8.25;5.35;;;;;;;12.64;90.24;98589.42;1780248;80;21079;-78
2022/09/17 06:14:58;;;;;;;10.95;5.45;;;;;;;12.62;89.99;98589.55;1779926;80;21043;-77
2022/09/17 06:17:26;;;;;;;10.88;5.22;;;;;;;12.65;89.64;98591.14;1780303;80;21562;-78
2022/09/17 06:19:52;;;;;;;5.78;4.78;;;;;;;12.66;89.65;98593.30;1780493;80;21451;-78
2022/09/17 06:22:19;;;;;;;10.88;5.50;;;;;;;12.71;90.00;98584.64;1780313;80;21499;-77
2022/09/17 06:24:45;;;;;;;10.30;5.00;;;;;;;12.75;89.99;98574.30;1780428;80;21523;-78
2022/09/17 06:27:12;;;;;;;7.50;4.60;;;;;;;12.79;89.76;98570.53;1780698;80;21475;-78
2022/09/17 06:29:39;;;;;;;8.38;4.95;;;;;;;12.83;89.42;98567.63;1780231;80;21537;-78
2022/09/17 06:32:10;;;;;;;12.93;4.80;;;;;;;12.87;89.30;98580.17;1780686;80;22071;-78
2022/09/17 06:34:36;;;;;;;11.88;4.70;;;;;;;12.89;89.23;98591.48;1780268;80;21513;-77
2022/09/17 06:37:02;;;;;;;7.08;4.42;;;;;;;12.89;89.05;98586.20;1780739;80;21700;-77
2022/09/17 06:39:29;;;;;;;7.53;4.78;;;;;;;12.90;88.93;98585.27;1780280;80;21070;-77
2022/09/17 06:41:56;;;;;;;13.62;6.97;;;;;;;12.93;89.02;98591.70;1780166;80;21581;-78
2022/09/17 06:44:23;;;;;;;19.92;8.03;;;;;;;12.95;89.01;98587.17;1780678;80;21574;-77
2022/09/17 06:46:50;;;;;;;8.50;5.65;;;;;;;13.01;88.80;98593.87;1780003;80;21953;-78
2022/09/17 06:49:18;;;;;;;7.42;5.33;;;;;;;13.04;88.60;98587.09;1780373;80;21066;-78
2022/09/17 06:51:44;;;;;;;11.48;5.45;;;;;;;13.09;88.56;98594.27;1779986;80;21059;-78
2022/09/17 06:54:11;;;;;;;10.32;5.75;;;;;;;13.15;88.72;98595.70;1780141;80;21004;-77
2022/09/17 06:56:37;;;;;;;8.38;5.37;;;;;;;13.21;88.41;98600.60;1780423;80;21074;-77
2022/09/17 06:59:05;;;;;;;7.67;5.90;;;;;;;13.26;88.77;98598.53;1780109;80;20984;-77
2022/09/17 07:01:32;;;;;;;14.23;6.45;;;;;;;13.31;88.79;98603.55;1780115;80;21040;-78
2022/09/17 07:03:59;;;;;;;10.85;6.15;;;;;;;13.36;88.60;98606.79;1780426;80;21039;-78
2022/09/17 07:06:25;;;;;;;10.43;6.78;;;;;;;13.43;88.49;98604.63;1780422;80;21079;-77
2022/09/17 07:08:52;;;;;;;13.43;6.90;;;;;;;13.47;88.22;98595.58;1780360;80;21467;-77
2022/09/17 07:11:19;;;;;;;18.65;8.48;;;;;;;13.50;88.15;98604.17;1780142;80;21624;-78
2022/09/17 07:13:46;;;;;;;10.63;6.72;;;;;;;13.53;88.28;98600.47;1780451;80;21016;-77
2022/09/17 07:16:12;;;;;;;17.42;6.65;;;;;;;13.57;88.43;98602.00;1780175;80;21129;-78
2022/09/17 07:18:39;;;;;;;21.73;6.83;;;;;;;13.58;88.37;98602.36;1780590;80;21059;-77
2022/09/17 07:21:05;;;;;;;18.27;8.73;;;;;;;13.59;88.37;98596.14;1779959;80;21071;-77
2022/09/17 07:23:34;;;;;;;28.67;9.83;;;;;;;13.63;88.02;98598.13;1780336;80;21111;-78
2022/09/17 07:26:04;;;;;;;26.17;12.25;;;;;;;13.66;87.50;98593.97;1780098;80;21071;-77
2022/09/17 07:28:31;;;;;;;27.32;12.35;;;;;;;13.71;87.04;98602.46;1779878;80;21550;-78
2022/09/17 07:30:57;;;;;;;21.82;9.90;;;;;;;13.75;86.58;98603.50;1780114;80;21369;-77
2022/09/17 07:33:25;;;;;;;35.45;11.75;;;;;;;13.80;86.01;98590.45;1780247;80;21542;-78
2022/09/17 07:35:58;;;;;;;31.17;12.47;;;;;;;13.82;85.64;98585.91;1780362;80;21100;-77
2022/09/17 07:38:25;;;;;;;25.08;9.65;;;;;;;13.86;84.98;98593.56;1779284;80;21534;-77
2022/09/17 07:41:08;;;;;;;24.25;5.85;;;;;;;13.88;84.83;98594.80;1780499;80;21538;-77
2022/09/17 07:43:35;;;;;;;9.08;4.45;;;;;;;13.91;83.65;98590.64;1779499;80;21138;-78
2022/09/17 07:46:03;;;;;;;6.22;3.40;;;;;;;13.94;82.80;98593.09;1780300;80;21078;-78
2022/09/17 07:48:29;;;;;;;11.00;3.27;;;;;;;13.95;82.29;98589.48;1780063;80;21703;-78
2022/09/17 07:50:56;;;;;;;12.35;3.75;;;;;;;13.98;81.92;98577.39;1780045;80;21015;-78
2022/09/17 07:53:22;;;;;;;10.03;3.40;;;;;;;14.02;81.81;98576.27;1780365;80;21561;-78
2022/09/17 07:55:55;;;;;;;6.42;2.35;;;;;;;14.06;81.34;98578.24;1780102;80;21716;-78
2022/09/17 07:58:23;;;;;;;4.35;2.42;;;;;;;14.09;80.15;98576.24;1779938;80;21581;-78
2022/09/17 08:00:49;;;;;;;2.58;2.37;;;;;;;14.12;79.39;98572.09;1780479;80;21739;-78
2022/09/17 08:03:16;;;;;;;7.05;2.40;;;;;;;14.16;78.31;98562.63;1780194;80;21597;-78
2022/09/17 08:05:42;;;;;;;5.97;2.47;;;;;;;14.18;77.54;98568.67;1780507;80;21495;-78
2022/09/17 08:08:09;;;;;;;9.25;4.12;;;;;;;14.20;76.79;98572.89;1780130;80;21578;-78
2022/09/17 08:10:37;;;;;;;5.17;3.00;;;;;;;14.22;76.01;98578.09;1780532;80;20972;-77
2022/09/17 08:13:04;;;;;;;5.45;3.02;;;;;;;14.23;75.80;98581.96;1780452;80;21102;-78
2022/09/17 08:15:31;;;;;;;8.55;3.40;;;;;;;14.24;75.52;98586.77;1780241;80;21071;-78
2022/09/17 08:17:58;;;;;;;7.35;3.40;;;;;;;14.27;76.48;98579.51;1780375;80;21047;-77
2022/09/17 08:20:25;;;;;;;11.12;3.62;;;;;;;14.31;78.29;98580.16;1780118;80;21062;-78
2022/09/17 08:23:00;;;;;;;15.32;4.70;;;;;;;14.34;79.11;98579.96;1776469;80;22212;-78
2022/09/17 08:25:26;;;;;;;;;;;;;;;14.34;79.64;98573.34;1777330;80;21156;-78
2022/09/17 08:27:55;;;;;;;9.80;4.30;;;;;;;14.38;80.30;98570.86;1774428;80;20199;-77
2022/09/17 08:30:22;;;;;;;14.93;3.95;;;;;;;14.41;80.16;98578.60;1774844;80;21055;-77
2022/09/17 08:32:49;;;;;;;7.33;4.03;;;;;;;14.45;80.29;98581.89;1764169;79;21177;-77
2022/09/17 08:35:16;;;;;;;10.78;3.85;;;;;;;14.47;80.33;98587.92;1760545;79;21409;-81
2022/09/17 08:37:43;;;;;;;7.08;4.03;;;;;;;14.51;80.67;98589.45;1747441;79;21104;-77
2022/09/17 08:40:17;;;;;;;9.23;4.30;;;;;;;14.54;81.06;98587.05;1767638;79;21011;-77
2022/09/17 08:42:53;;;;;;;6.53;4.07;;;;;;;14.55;81.22;98585.63;1764343;79;21467;-78
2022/09/17 08:45:20;;;;;;;4.97;3.75;;;;;;;14.59;81.17;98586.30;1744790;79;21430;-76
2022/09/17 08:47:47;;;;;;;15.20;3.10;;;;;;;14.61;80.60;98580.45;1797921;78;21046;-77
2022/09/17 08:50:28;;;;;;;3.62;2.87;;;;;;;14.65;80.18;98576.64;1782760;79;21126;-78
2022/09/17 08:53:23;;;;;;;5.50;2.85;;;;;;;14.67;79.85;98573.41;1767433;81;21026;-78
2022/09/17 08:56:08;;;;;;;4.47;2.77;;;;;;;14.70;79.33;98570.56;1767513;81;21187;-78
2022/09/17 08:58:55;;;;;;;5.20;2.72;;;;;;;14.74;78.13;98564.59;1767957;81;21030;-77
2022/09/17 09:01:33;;;;;;;4.20;2.77;;;;;;;14.76;77.73;98566.65;1767342;81;21121;-77
2022/09/17 09:04:15;;;;;;;6.22;3.00;;;;;;;14.77;77.67;98578.46;1743444;81;21791;-77
2022/09/17 09:06:52;;;;;;;4.00;3.37;;;;;;;14.81;77.57;98581.30;1766191;81;21081;-77
2022/09/17 09:09:22;;;;;;;3.65;3.35;;;;;;;14.83;77.34;98582.52;1767264;81;21002;-76
2022/09/17 09:11:49;;;;;;;9.60;3.55;;;;;;;14.85;77.16;98591.20;1767000;81;21489;-77
2022/09/17 09:14:20;;;;;;;6.62;4.42;;;;;;;14.81;76.67;98583.95;1767951;81;21027;-78
2022/09/17 09:16:47;;;;;;;7.30;3.92;;;;;;;14.79;76.67;98580.56;1767515;81;21886;-75
2022/09/17 09:19:29;;;;;;;6.40;3.83;;;;;;;14.79;76.89;98579.23;1766723;81;21145;-77
2022/09/17 09:22:14;;;;;;;5.28;3.42;;;;;;;14.80;76.96;98570.31;1765732;81;21090;-76
2022/09/17 09:24:50;;;;;;;8.50;3.83;;;;;;;14.82;77.18;98571.55;1752449;81;21012;-77
2022/09/17 09:27:20;;;;;;;4.80;3.80;;;;;;;14.80;77.05;98572.97;1724051;81;22141;-76
2022/09/17 09:30:09;;;;;;;6.45;3.80;;;;;;;14.83;76.98;98572.77;1752226;81;21110;-77
2022/09/17 09:32:58;;;;;;;3.95;3.20;;;;;;;14.88;76.97;98573.79;1752549;81;21063;-77
2022/09/17 09:35:31;;;;;;;3.75;3.08;;;;;;;14.91;76.63;98581.98;1752120;81;21075;-76
2022/09/17 09:38:15;;;;;;;4.42;2.50;;;;;;;14.92;76.14;98591.64;1752435;81;21083;-77
2022/09/17 09:40:56;;;;;;;7.20;3.00;;;;;;;14.92;76.27;98596.45;1752353;81;21055;-77
2022/09/17 09:43:36;;;;;;;6.78;2.80;;;;;;;14.94;76.05;98599.00;1752981;81;22237;-77
2022/09/17 09:46:33;;;;;;;3.47;2.62;;;;;;;14.95;75.99;98598.06;1752402;81;21526;-77
2022/09/17 09:49:45;;;;;;;3.77;3.00;;;;;;;14.98;75.98;98596.05;1752614;81;21054;-77
2022/09/17 09:52:46;;;;;;;6.30;2.98;;;;;;;15.04;76.03;98588.16;1749443;81;21520;-77
2022/09/17 09:55:42;;;;;;;5.22;3.30;;;;;;;15.08;75.71;98593.63;1752543;81;21058;-76
2022/09/17 09:58:37;;;;;;;5.10;3.27;;;;;;;15.08;75.21;98604.69;1752071;81;21231;-77
2022/09/17 10:01:21;;;;;;;5.78;3.42;;;;;;;15.07;75.56;98598.55;1752328;81;25732;-77
2022/09/17 10:03:50;;;;;;;3.58;3.27;;;;;;;15.07;75.90;98598.55;1752662;81;21133;-76
2022/09/17 10:06:17;;;;;;;3.90;3.17;;;;;;;15.07;76.08;98599.03;1752368;81;21661;-76
2022/09/17 10:09:03;;;;;;;6.00;3.80;;;;;;;15.08;76.35;98590.98;1752511;81;21067;-77
2022/09/17 10:11:34;;;;;;;6.28;4.10;;;;;;;15.08;76.14;98592.31;1752753;81;21813;-76
2022/09/17 10:14:25;;;;;;;7.75;4.72;;;;;;;15.07;75.98;98597.22;1752056;81;21102;-76
2022/09/17 10:17:18;;;;;;;9.00;5.62;;;;;;;15.08;75.88;98603.36;1752286;81;21132;-77
2022/09/17 10:19:47;;;;;;;7.05;4.83;;;;;;;15.01;76.44;98605.58;1748544;81;21004;-76
2022/09/17 10:22:35;;;;;;;4.00;3.60;;;;;;;15.01;76.79;98597.63;1745054;81;21046;-77
2022/09/17 10:25:04;;;;;;;8.58;4.17;;;;;;;15.03;76.77;98591.77;1751193;81;21126;-78
2022/09/17 10:27:31;;;;;;;4.40;3.52;;;;;;;15.09;77.02;98586.52;1726380;81;21133;-77
2022/09/17 10:30:17;;;;;;;6.90;3.47;;;;;;;15.12;76.90;98584.51;1751043;81;21027;-78
2022/09/17 10:32:43;;;;;;;4.08;3.67;;;;;;;15.19;76.87;98591.08;1751248;81;21074;-76
2022/09/17 10:35:21;;;;;;;3.70;3.40;;;;;;;15.27;76.66;98597.19;1751010;81;21150;-77
2022/09/17 10:37:51;;;;;;;3.27;3.00;;;;;;;15.33;76.50;98589.28;1750685;81;21169;-77
2022/09/17 10:40:25;;;;;;;4.40;3.47;;;;;;;15.37;76.36;98578.86;1750171;81;21338;-78
2022/09/17 10:43:18;;;;;;;5.35;3.42;;;;;;;15.40;76.21;98586.60;1751465;81;21591;-77
2022/09/17 10:45:52;;;;;;;8.50;3.75;;;;;;;15.43;76.11;98590.34;1750802;81;21059;-75
2022/09/17 10:48:19;;;;;;;6.08;3.75;;;;;;;15.45;76.42;98592.43;1719027;81;21003;-76
2022/09/17 10:50:52;;;;;;;7.92;4.83;;;;;;;15.46;76.17;98587.97;1750917;81;21205;-76
2022/09/17 10:53:22;;;;;;;4.90;4.30;;;;;;;15.45;76.03;98585.80;1751202;81;21051;-76
2022/09/17 10:56:08;;;;;;;6.50;4.50;;;;;;;15.46;75.90;98594.11;1750910;81;21565;-77
2022/09/17 10:58:58;;;;;;;4.50;4.10;;;;;;;15.45;76.14;98593.75;1751126;81;21074;-77
2022/09/17 11:01:48;;;;;;;6.33;4.10;;;;;;;15.49;76.26;98591.25;1750183;81;21117;-77
2022/09/17 11:04:33;;;;;;;5.67;4.12;;;;;;;15.56;76.18;98584.55;1751305;81;21557;-77
2022/09/17 11:07:16;;;;;;;5.00;3.83;;;;;;;15.64;76.35;98584.52;1751092;81;20988;-77
2022/09/17 11:10:00;;;;;;;6.08;4.40;;;;;;;15.68;76.69;98568.74;1751290;81;21093;-76
2022/09/17 11:12:55;;;;;;;5.80;4.03;;;;;;;15.74;76.97;98564.34;1751335;81;22287;-77
2022/09/17 11:15:30;;;;;;;4.90;3.63;;;;;;;15.79;77.18;98564.89;1734127;81;21126;-76
2022/09/17 11:18:39;;;;;;;8.45;5.22;;;;;;;15.83;77.32;98569.01;1750904;81;21255;-77
2022/09/17 11:21:28;;;;;;;7.80;4.87;;;;;;;15.88;77.39;98564.22;1647936;86;21094;-77
2022/09/17 11:24:35;;;;;;;9.43;5.17;;;;;;;15.91;77.68;98569.31;1740152;81;21564;-76
2022/09/17 11:27:18;;;;;;;5.92;4.37;;;;;;;15.94;78.03;98573.07;1766912;81;21034;-76
2022/09/17 11:29:59;;;;;;;10.48;5.08;;;;;;;15.98;78.12;98560.43;1767598;81;21069;-77
2022/09/17 11:32:31;;;;;;;5.55;4.92;;;;;;;16.02;78.57;98556.61;1767235;81;21117;-77
2022/09/17 11:35:14;;;;;;;7.47;5.10;;;;;;;16.06;78.90;98554.58;1766875;81;21109;-76
2022/09/17 11:37:57;;;;;;;6.95;5.92;;;;;;;16.07;79.03;98560.23;1767347;81;21501;-76
2022/09/17 11:40:45;;;;;;;6.12;5.45;;;;;;;16.07;79.32;98550.49;1764548;81;21644;-76
2022/09/17 11:43:32;;;;;;;6.85;5.35;;;;;;;16.10;79.65;98530.83;1767498;81;21470;-76
2022/09/17 11:46:24;;;;;;;6.45;4.90;;;;;;;16.11;80.23;98525.91;1766677;81;21692;-77
2022/09/17 11:49:20;;;;;;;5.35;4.25;;;;;;;16.11;79.87;98514.80;1767911;81;21034;-76
2022/09/17 11:51:51;;;;;;;7.75;4.60;;;;;;;16.15;79.98;98516.74;1767669;81;21018;-77
2022/09/17 11:54:56;;;;;;;7.08;4.70;;;;;;;16.15;79.91;98513.63;1768002;81;21062;-77
2022/09/17 11:57:33;;;;;;;6.78;5.15;;;;;;;16.17;79.96;98525.43;1767788;81;21074;-77
2022/09/17 12:00:19;;;;;;;6.47;4.92;;;;;;;16.17;79.86;98526.76;1767674;81;21162;-77